Terminal Aerodrome Forecast
Issued by NWS Sioux Falls, SD

Home | Current Version | Previous Version | Text Only | Print | Product List | Glossary Off
Versions: 1 2 3 4 5 6 7 8 9 10 11 12 13 14 15 16

084
FTUS43 KFSD 201747 RRA
TAFFSD
TAF
KFSD 201747Z 2018/2118 16009KT 6SM BR BKN005
     FM202000 14008KT P6SM BKN007
     FM210400 14008KT 2SM -RA BR OVC003
     FM211000 12004KT 1SM BR OVC002
     FM211700 VRB03KT 4SM BR OVC003=

USA.gov is the U.S. government's official web portal to all federal, state and local government web resources and services.